Pagina principale
METAR-TAF:

METAR-TAF

Aeroporti :

Cuneo, Italia

Aeroporto di Cuneo-Levaldigi

latitudine: 44-32-47N, longitudine: 007-37-20E, altezza: 386 m

Osservazione

Il bollettino è stato emesso 1 ora e 8 minuti fa, alle 14:50 UTC
Vento 2 kt da direzioni variabili
Temperature 13°C
Umidità 41%
Pressione 1012 hPa
Visibilità 10 km o più
nessuna nube inferiore a 1500 m e nessun cumulonembo

METAR: LIMZ 191450Z VRB02KT CAVOK 13/00 Q1012

Ora: 16:58 (15:58 UTC)

Previsione

Il bollettino è stato emesso 4 ore e 58 minuti fa, alle 11:00 UTC
Previsione valida dal 19 alle 12 UTC al 20 alle 12 UTC
Vento 5 kt da direzioni variabili
Visibilità 10 km o più
nessuna nube inferiore a 1500 m e nessun cumulonembo
Temporaneamente
dal 20 alle 02 UTC al 20 alle 07 UTC
Visibilità: 2500 m
foschia

TAF: LIMZ 191100Z 1912/2012 VRB05KT CAVOK TEMPO 2002/2007 2500 BR

Osservazioni e previsioni meteorologiche di più di 4000 aeroporti (messaggi METAR e TAF).

Le stazioni disponibili sono rappresentate dai dischi gialli e rossi sulla carta.

Puntare il mouse per vedere il nome della stazione.

Clicca sopra per visualizzare le osservazioni e previsioni meteorologiche.

Per cambiare la mappa : fare clic sui pulsanti verdi con una croce nera per ingrandire, il pulsante verde con un trattino per diminuire, o sulla freccia verde per le mappe adiacenti.


METAR-TAF: